logo
Search for airport 
image banner adimage banner adimage banner ad
image banner ad

ED2215 - Hubertushoehe

Located in , Germany

ICAO - , IATA -

Data provided by Airmate  

General information

Coordinates: N52°14'23" E13°58'19"
Elevation is 122 feet MSL.
Magnetic variation is 3.0000° East
View others Airports in Brandenburg

Operational data

Special qualification required
Current time UTC:
Current local time:
Weather at : EDDB - Berlin Brandenburg ( 35 km )
METAR: EDDB 301950Z AUTO 11005KT 9999 FEW010 16/15 Q1004 NOSIG
TAF: TAF EDDB 301700Z 3018/3118 09003KT 9999 FEW045 PROB30 TEMPO 3020/3024 SHRA BKN040CB BECMG 3023/3103 21005KT 4000 BR BKN008 PROB40 TEMPO 3102/3105 0700 FG BKN001 BECMG 3105/3107 9999 BKN015 BECMG 3113/3116 29005KT
View NOTAMs / SUP AIP / TFR affecting this airport [VIEW]
Communications frequencies: [VIEW]

Runways:

Airport contact information

Address: Germany

Satellite view of ED2215